Historyczne dane pomiarowe

Dodano dane terminowe – wersja testowa.

Dane z okresu 1951-2019

Wersja bazy: 1.34 [2019-03-16, lista zmian], aktualizacja planowana na 2019-04-15

Dane meteo z obszaru Polski uzyskane na podstawie danych udostępnionych przez Instytut Meteorologii i Gospodarki Wodnej – Państwowy Instytut Badawczy.

 

Wybierz Datę:    

       

TemperaturaWilgotnośćWiatrCiśnienieOpadyŚniegCzas trwania zjawisk
 Stacja t tx tn tng RH VA  wxwx mslp ppp RRR   cm mm wxwxwxwxwxwxwx
1961-08-14 14.4 20.3 8.4- 82.8- 4.3 3.0---- 0.7------------
1961-08-13 14.0 18.7 10.5- 77.0- 1.0 3.0---- 0.0------------
1961-08-12 17.1 22.2 13.9- 82.5- 4.3 5.0---- 0.5------------
1961-08-11 16.2 17.6 15.3- 92.0- 6.0 1.7---- 0.8------------
1961-08-10 17.0 22.7 11.4- 86.0- 5.7 3.0---- 13.2------------
1961-08-09 16.7 20.8 13.9- 84.3- 4.7 1.0---- 0.0------------
1961-08-08 16.1 18.8 11.2- 82.5- 5.0 2.7---- 0.0------------
1961-08-07 15.5 17.4 13.1- 92.3- 8.0 1.0---- 9.9------------
1961-08-06 19.5 27.4 15.2- 80.5- 4.7 2.3---- 26.1------------
1961-08-05 17.0 21.1 13.4- 78.0- 6.0 4.0---- 0.7------------
1961-08-04 13.7 17.0 8.5- 88.8- 7.3 3.7---- 2.3------------
1961-08-03 14.0 19.6 12.0- 91.8- 5.0 2.0---- 4.6------------
1961-08-02 17.0 22.3 11.7- 83.8- 4.0 3.3---- 3.6------------
1961-08-01 14.8 17.6 13.9- 90.5- 8.0 4.0---- 4.3------------
1961-07-31 15.0 18.4 10.7- 94.5- 7.7 6.0---- 23.5------------
1961-07-30 15.6 17.8 10.8- 88.8- 7.3 3.0---- 4.9------------
1961-07-29 14.7 18.7 11.2- 81.0- 7.0 3.0---- 0.0------------
1961-07-28 14.1 16.3 12.8- 94.0- 7.3 1.0---- 2.2------------
1961-07-27 17.1 20.9 14.3- 76.0- 6.7 5.0---- 0.0------------
1961-07-26 16.8 18.8 12.8- 80.8- 8.0 3.0---- 1.4------------
1961-07-25 14.7 18.8 10.3- 77.3- 7.3 3.3---- 0.3------------
1961-07-24 14.1 19.4 11.5- 80.3- 4.3 3.7---- 1.4------------
1961-07-23 15.3 19.7 13.7- 81.5- 7.3 2.7---- 0.0------------
1961-07-22 15.5 19.7 11.7- 88.0- 6.7 1.7---- 19.5------------
1961-07-21 15.2 19.0 11.4- 94.3- 7.7 2.7---- 17.9------------
1961-07-20 16.5 21.9 11.9- 80.8- 5.3 2.3---- 1.0------------
1961-07-19 15.5 19.3 11.8- 85.5- 4.7 2.7---- 0.4------------
1961-07-18 15.1 17.3 13.2- 87.8- 7.7 0.7---- 0.2------------
1961-07-17 15.7 20.3 9.9- 85.0- 5.3 2.0---- 3.8------------
1961-07-16 14.8 17.2 9.4- 90.5- 7.0 2.7---- 0.6------------
1961-07-15 15.7 20.6 10.5- 84.5- 3.0 2.7---- 4.8------------
1961-07-14 15.0 19.3 13.8- 82.3- 7.3 5.0---- 0.0------------
1961-07-13 20.1 26.7 13.7- 85.5- 4.7 5.0---- 13.4------------
1961-07-12 17.4 22.8 13.1- 87.8- 3.7 3.3---- 0.0------------
1961-07-11 14.8 20.2 9.9- 75.5- 6.0 3.3---- 2.0------------
1961-07-10 13.8 17.8 10.6- 82.0- 6.3 2.7---- 0.4------------
1961-07-09 14.1 20.3 11.9- 95.5- 6.7 2.3---- 16.0------------
1961-07-08 15.0 19.6 8.3- 84.8- 7.0 3.0---- 7.4------------
1961-07-07 12.7 17.2 8.8- 76.3- 6.0 3.0---- 0.1------------
1961-07-06 12.2 16.1 7.8- 81.8- 6.0 4.3---- 2.3------------
1961-07-05 12.9 18.3 11.0- 73.5- 5.3 6.0---- 0.0------------
1961-07-04 16.5 21.0 13.1- 78.8- 6.7 4.0---- 0.0------------
1961-07-03 22.8 32.9 14.4- 67.3- 2.7 4.3---- 0.0------------
1961-07-02 20.1 24.2 10.6- 76.5- 3.0 2.0---- 0.0------------
1961-07-01 17.5 21.0 9.2- 80.8- 1.7 2.7---- 0.0------------
1961-06-30 16.6 21.0 9.7- 79.3- 0.0 4.7---- 0.0------------
1961-06-29 15.6 20.3 10.6- 72.0- 5.3 4.0---- 0.0------------
1961-06-28 15.8 19.7 14.4- 54.3- 3.0 6.0---- 0.0------------
1961-06-27 21.7 28.7 15.0- 76.8- 4.7 5.0---- 0.0------------
1961-06-26 18.1 21.1 14.8- 77.5- 0.3 4.0---- 0.0------------
1961-06-25 21.1 27.7 12.9- 61.0- 6.0 3.3---- 0.0------------
1961-06-24 17.5 21.8 13.9- 61.5- 8.0 5.0---- 0.0------------
1961-06-23 17.7 22.0 11.3- 65.8- 4.0 3.3---- 0.0------------
1961-06-22 16.3 20.7 6.8- 70.0- 2.7 2.0---- 0.0------------
1961-06-21 13.7 19.8 8.8- 76.0- 5.3 4.3---- 2.8------------
1961-06-20 14.1 18.0 9.2- 67.0- 2.3 5.0---- 0.0------------
1961-06-19 15.2 19.5 12.7- 64.0- 2.7 5.0---- 0.0------------
1961-06-18 20.7 27.0 16.3- 76.3- 3.7 5.7---- 0.0------------
1961-06-17 18.3 21.7 11.8- 81.3- 4.0 2.7---- 0.0------------
1961-06-16 14.4 16.6 12.1- 84.3- 7.0 4.3---- 1.7------------
1068.6 ms

 

Źródłem pochodzenia danych jest Instytut Meteorologii i Gospodarki Wodnej – Państwowy Instytut Badawczy. Dane Instytutu Meteorologii i Gospodarki Wodnej – Państwowego Instytutu Badawczego zostały przetworzone.

Dane źródłowe można odnaleźć na stronie https://dane.imgw.pl